sensor_id;sensor_type;location;lat;lon;timestamp;P1;durP1;ratioP1;P2;durP2;ratioP2
80261;SDS011;69567;47.574;8.580;2023-11-22T00:01:48;0.70;;;0.50;;
80261;SDS011;69567;47.574;8.580;2023-11-22T00:04:16;1.08;;;0.50;;
80261;SDS011;69567;47.574;8.580;2023-11-22T00:06:44;0.80;;;0.60;;
80261;SDS011;69567;47.574;8.580;2023-11-22T00:09:13;0.60;;;0.55;;
80261;SDS011;69567;47.574;8.580;2023-11-22T00:11:41;0.65;;;0.60;;
80261;SDS011;69567;47.574;8.580;2023-11-22T00:14:09;0.55;;;0.50;;
80261;SDS011;69567;47.574;8.580;2023-11-22T00:16:37;1.38;;;0.50;;
80261;SDS011;69567;47.574;8.580;2023-11-22T00:19:06;0.47;;;0.47;;
80261;SDS011;69567;47.574;8.580;2023-11-22T00:21:34;1.23;;;0.80;;
80261;SDS011;69567;47.574;8.580;2023-11-22T00:24:02;0.77;;;0.57;;
80261;SDS011;69567;47.574;8.580;2023-11-22T00:26:32;0.50;;;0.50;;
80261;SDS011;69567;47.574;8.580;2023-11-22T00:29:00;0.32;;;0.30;;
80261;SDS011;69567;47.574;8.580;2023-11-22T00:31:28;0.93;;;0.50;;
80261;SDS011;69567;47.574;8.580;2023-11-22T00:33:56;1.55;;;0.73;;
80261;SDS011;69567;47.574;8.580;2023-11-22T00:36:24;1.13;;;0.60;;
80261;SDS011;69567;47.574;8.580;2023-11-22T00:38:52;1.40;;;0.73;;
80261;SDS011;69567;47.574;8.580;2023-11-22T00:41:19;0.40;;;0.40;;
80261;SDS011;69567;47.574;8.580;2023-11-22T00:43:49;1.30;;;0.63;;
80261;SDS011;69567;47.574;8.580;2023-11-22T00:46:17;1.20;;;0.60;;
80261;SDS011;69567;47.574;8.580;2023-11-22T00:48:44;0.57;;;0.45;;
80261;SDS011;69567;47.574;8.580;2023-11-22T00:51:12;1.05;;;0.60;;
80261;SDS011;69567;47.574;8.580;2023-11-22T00:53:40;1.08;;;0.75;;
80261;SDS011;69567;47.574;8.580;2023-11-22T00:56:08;1.75;;;0.80;;
80261;SDS011;69567;47.574;8.580;2023-11-22T00:58:35;1.13;;;0.77;;
80261;SDS011;69567;47.574;8.580;2023-11-22T01:01:05;0.93;;;0.73;;
80261;SDS011;69567;47.574;8.580;2023-11-22T01:03:33;0.75;;;0.60;;
80261;SDS011;69567;47.574;8.580;2023-11-22T01:06:01;1.70;;;0.70;;
80261;SDS011;69567;47.574;8.580;2023-11-22T01:08:30;1.08;;;0.65;;
80261;SDS011;69567;47.574;8.580;2023-11-22T01:10:57;1.70;;;0.77;;
80261;SDS011;69567;47.574;8.580;2023-11-22T01:13:26;1.48;;;0.95;;
80261;SDS011;69567;47.574;8.580;2023-11-22T01:15:54;1.00;;;0.70;;
80261;SDS011;69567;47.574;8.580;2023-11-22T01:18:23;1.25;;;0.60;;
80261;SDS011;69567;47.574;8.580;2023-11-22T01:20:51;1.05;;;0.70;;
80261;SDS011;69567;47.574;8.580;2023-11-22T01:23:19;2.17;;;0.73;;
80261;SDS011;69567;47.574;8.580;2023-11-22T01:25:47;0.63;;;0.60;;
80261;SDS011;69567;47.574;8.580;2023-11-22T01:28:16;0.75;;;0.70;;
80261;SDS011;69567;47.574;8.580;2023-11-22T01:30:47;0.88;;;0.60;;
80261;SDS011;69567;47.574;8.580;2023-11-22T01:33:15;1.23;;;0.60;;
80261;SDS011;69567;47.574;8.580;2023-11-22T01:35:44;2.13;;;0.70;;
80261;SDS011;69567;47.574;8.580;2023-11-22T01:38:12;1.05;;;0.65;;
80261;SDS011;69567;47.574;8.580;2023-11-22T01:40:43;0.70;;;0.60;;
80261;SDS011;69567;47.574;8.580;2023-11-22T01:43:12;1.02;;;0.70;;
80261;SDS011;69567;47.574;8.580;2023-11-22T01:45:41;1.10;;;0.50;;
80261;SDS011;69567;47.574;8.580;2023-11-22T01:48:09;1.73;;;0.60;;
80261;SDS011;69567;47.574;8.580;2023-11-22T01:50:38;0.43;;;0.35;;
80261;SDS011;69567;47.574;8.580;2023-11-22T01:53:08;0.80;;;0.60;;
80261;SDS011;69567;47.574;8.580;2023-11-22T01:55:37;0.65;;;0.57;;
80261;SDS011;69567;47.574;8.580;2023-11-22T01:58:05;0.70;;;0.60;;
80261;SDS011;69567;47.574;8.580;2023-11-22T02:00:35;0.80;;;0.40;;
80261;SDS011;69567;47.574;8.580;2023-11-22T02:03:03;0.80;;;0.75;;
80261;SDS011;69567;47.574;8.580;2023-11-22T02:05:31;0.85;;;0.45;;
80261;SDS011;69567;47.574;8.580;2023-11-22T02:08:00;1.35;;;0.82;;
80261;SDS011;69567;47.574;8.580;2023-11-22T02:10:29;1.33;;;0.70;;
80261;SDS011;69567;47.574;8.580;2023-11-22T02:12:57;1.00;;;0.50;;
80261;SDS011;69567;47.574;8.580;2023-11-22T02:15:26;0.98;;;0.85;;
80261;SDS011;69567;47.574;8.580;2023-11-22T02:17:54;0.60;;;0.60;;
80261;SDS011;69567;47.574;8.580;2023-11-22T02:20:36;0.75;;;0.60;;
80261;SDS011;69567;47.574;8.580;2023-11-22T02:23:08;1.70;;;0.63;;
80261;SDS011;69567;47.574;8.580;2023-11-22T02:25:38;1.00;;;0.90;;
80261;SDS011;69567;47.574;8.580;2023-11-22T02:28:05;0.95;;;0.60;;
80261;SDS011;69567;47.574;8.580;2023-11-22T02:30:35;1.08;;;0.70;;
80261;SDS011;69567;47.574;8.580;2023-11-22T02:33:03;0.68;;;0.60;;
80261;SDS011;69567;47.574;8.580;2023-11-22T02:35:31;0.60;;;0.55;;
80261;SDS011;69567;47.574;8.580;2023-11-22T02:37:59;1.17;;;0.70;;
80261;SDS011;69567;47.574;8.580;2023-11-22T02:40:29;0.68;;;0.68;;
80261;SDS011;69567;47.574;8.580;2023-11-22T02:42:56;1.38;;;0.73;;
80261;SDS011;69567;47.574;8.580;2023-11-22T02:45:25;0.82;;;0.73;;
80261;SDS011;69567;47.574;8.580;2023-11-22T02:47:53;0.90;;;0.70;;
80261;SDS011;69567;47.574;8.580;2023-11-22T02:50:21;0.70;;;0.70;;
80261;SDS011;69567;47.574;8.580;2023-11-22T02:52:49;1.63;;;0.90;;
80261;SDS011;69567;47.574;8.580;2023-11-22T02:55:17;0.60;;;0.50;;
80261;SDS011;69567;47.574;8.580;2023-11-22T02:57:47;1.38;;;0.60;;
80261;SDS011;69567;47.574;8.580;2023-11-22T03:00:15;0.82;;;0.43;;
80261;SDS011;69567;47.574;8.580;2023-11-22T03:02:45;1.63;;;0.70;;
80261;SDS011;69567;47.574;8.580;2023-11-22T03:05:13;1.60;;;0.98;;
80261;SDS011;69567;47.574;8.580;2023-11-22T03:07:41;2.17;;;0.80;;
80261;SDS011;69567;47.574;8.580;2023-11-22T03:10:09;0.75;;;0.68;;
80261;SDS011;69567;47.574;8.580;2023-11-22T03:12:37;1.60;;;0.90;;
80261;SDS011;69567;47.574;8.580;2023-11-22T03:15:07;1.52;;;0.80;;
80261;SDS011;69567;47.574;8.580;2023-11-22T03:17:36;2.15;;;0.85;;
80261;SDS011;69567;47.574;8.580;2023-11-22T03:20:05;2.75;;;0.63;;
80261;SDS011;69567;47.574;8.580;2023-11-22T03:22:35;1.05;;;0.70;;
80261;SDS011;69567;47.574;8.580;2023-11-22T03:25:03;2.35;;;0.95;;
80261;SDS011;69567;47.574;8.580;2023-11-22T03:27:31;1.98;;;0.70;;
80261;SDS011;69567;47.574;8.580;2023-11-22T03:29:59;2.30;;;0.90;;
80261;SDS011;69567;47.574;8.580;2023-11-22T03:32:28;1.17;;;0.60;;
80261;SDS011;69567;47.574;8.580;2023-11-22T03:34:56;0.85;;;0.70;;
80261;SDS011;69567;47.574;8.580;2023-11-22T03:37:24;1.52;;;0.50;;
80261;SDS011;69567;47.574;8.580;2023-11-22T03:39:52;1.67;;;0.82;;
80261;SDS011;69567;47.574;8.580;2023-11-22T03:42:20;1.98;;;0.70;;
80261;SDS011;69567;47.574;8.580;2023-11-22T03:44:48;0.85;;;0.55;;
80261;SDS011;69567;47.574;8.580;2023-11-22T03:47:17;1.17;;;0.75;;
80261;SDS011;69567;47.574;8.580;2023-11-22T03:49:46;1.08;;;0.60;;
80261;SDS011;69567;47.574;8.580;2023-11-22T03:52:14;0.80;;;0.60;;
80261;SDS011;69567;47.574;8.580;2023-11-22T03:54:42;0.70;;;0.60;;
80261;SDS011;69567;47.574;8.580;2023-11-22T03:57:10;0.82;;;0.60;;
80261;SDS011;69567;47.574;8.580;2023-11-22T03:59:40;1.05;;;0.73;;
80261;SDS011;69567;47.574;8.580;2023-11-22T04:02:08;2.05;;;0.63;;
80261;SDS011;69567;47.574;8.580;2023-11-22T04:04:36;1.10;;;0.70;;
80261;SDS011;69567;47.574;8.580;2023-11-22T04:07:07;0.73;;;0.70;;
80261;SDS011;69567;47.574;8.580;2023-11-22T04:09:35;0.82;;;0.52;;
80261;SDS011;69567;47.574;8.580;2023-11-22T04:12:03;1.17;;;0.68;;
80261;SDS011;69567;47.574;8.580;2023-11-22T04:14:31;0.65;;;0.40;;
80261;SDS011;69567;47.574;8.580;2023-11-22T04:16:59;1.60;;;0.90;;
80261;SDS011;69567;47.574;8.580;2023-11-22T04:19:28;0.52;;;0.40;;
80261;SDS011;69567;47.574;8.580;2023-11-22T04:21:56;0.85;;;0.40;;
80261;SDS011;69567;47.574;8.580;2023-11-22T04:24:27;0.90;;;0.70;;
80261;SDS011;69567;47.574;8.580;2023-11-22T04:26:54;0.90;;;0.80;;
80261;SDS011;69567;47.574;8.580;2023-11-22T04:29:22;1.30;;;0.80;;
80261;SDS011;69567;47.574;8.580;2023-11-22T04:31:50;1.95;;;0.60;;
80261;SDS011;69567;47.574;8.580;2023-11-22T04:34:18;1.25;;;0.73;;
80261;SDS011;69567;47.574;8.580;2023-11-22T04:36:46;0.73;;;0.63;;
80261;SDS011;69567;47.574;8.580;2023-11-22T04:39:14;1.38;;;0.77;;
80261;SDS011;69567;47.574;8.580;2023-11-22T04:41:43;2.13;;;1.20;;
80261;SDS011;69567;47.574;8.580;2023-11-22T04:44:11;1.70;;;0.80;;
80261;SDS011;69567;47.574;8.580;2023-11-22T04:46:39;1.00;;;0.90;;
80261;SDS011;69567;47.574;8.580;2023-11-22T04:49:06;2.00;;;0.55;;
80261;SDS011;69567;47.574;8.580;2023-11-22T04:51:35;1.88;;;0.90;;
80261;SDS011;69567;47.574;8.580;2023-11-22T04:54:03;1.50;;;0.88;;
80261;SDS011;69567;47.574;8.580;2023-11-22T04:56:31;1.67;;;1.00;;
80261;SDS011;69567;47.574;8.580;2023-11-22T04:59:00;1.70;;;0.80;;
80261;SDS011;69567;47.574;8.580;2023-11-22T05:01:30;1.38;;;0.80;;
80261;SDS011;69567;47.574;8.580;2023-11-22T05:03:59;1.00;;;0.80;;
80261;SDS011;69567;47.574;8.580;2023-11-22T05:06:27;1.92;;;1.08;;
80261;SDS011;69567;47.574;8.580;2023-11-22T05:08:55;1.55;;;1.00;;
80261;SDS011;69567;47.574;8.580;2023-11-22T05:11:23;1.10;;;1.00;;
80261;SDS011;69567;47.574;8.580;2023-11-22T05:13:51;1.13;;;0.80;;
80261;SDS011;69567;47.574;8.580;2023-11-22T05:16:20;1.40;;;0.80;;
80261;SDS011;69567;47.574;8.580;2023-11-22T05:18:48;0.73;;;0.60;;
80261;SDS011;69567;47.574;8.580;2023-11-22T05:21:16;1.08;;;0.70;;
80261;SDS011;69567;47.574;8.580;2023-11-22T05:23:44;1.65;;;0.90;;
80261;SDS011;69567;47.574;8.580;2023-11-22T05:26:12;1.15;;;0.70;;
80261;SDS011;69567;47.574;8.580;2023-11-22T05:28:41;1.10;;;0.82;;
80261;SDS011;69567;47.574;8.580;2023-11-22T05:31:09;1.35;;;0.80;;
80261;SDS011;69567;47.574;8.580;2023-11-22T05:33:40;0.77;;;0.63;;
80261;SDS011;69567;47.574;8.580;2023-11-22T05:36:08;0.73;;;0.60;;
80261;SDS011;69567;47.574;8.580;2023-11-22T05:38:38;0.88;;;0.70;;
80261;SDS011;69567;47.574;8.580;2023-11-22T05:41:06;1.42;;;0.80;;
80261;SDS011;69567;47.574;8.580;2023-11-22T05:43:33;0.90;;;0.55;;
80261;SDS011;69567;47.574;8.580;2023-11-22T05:46:03;1.55;;;0.80;;
80261;SDS011;69567;47.574;8.580;2023-11-22T05:48:31;1.00;;;0.77;;
80261;SDS011;69567;47.574;8.580;2023-11-22T05:51:00;1.60;;;0.73;;
80261;SDS011;69567;47.574;8.580;2023-11-22T05:53:28;2.03;;;0.88;;
80261;SDS011;69567;47.574;8.580;2023-11-22T05:55:56;1.27;;;0.68;;
80261;SDS011;69567;47.574;8.580;2023-11-22T05:58:24;0.60;;;0.55;;
80261;SDS011;69567;47.574;8.580;2023-11-22T06:00:52;2.30;;;1.63;;
80261;SDS011;69567;47.574;8.580;2023-11-22T06:03:19;0.65;;;0.52;;
80261;SDS011;69567;47.574;8.580;2023-11-22T06:05:48;0.95;;;0.52;;
80261;SDS011;69567;47.574;8.580;2023-11-22T06:08:17;0.93;;;0.60;;
80261;SDS011;69567;47.574;8.580;2023-11-22T06:10:45;1.48;;;1.20;;
80261;SDS011;69567;47.574;8.580;2023-11-22T06:13:13;1.23;;;0.55;;
80261;SDS011;69567;47.574;8.580;2023-11-22T06:15:41;0.40;;;0.40;;
80261;SDS011;69567;47.574;8.580;2023-11-22T06:18:09;0.95;;;0.30;;
80261;SDS011;69567;47.574;8.580;2023-11-22T06:20:36;0.22;;;0.22;;
80261;SDS011;69567;47.574;8.580;2023-11-22T06:23:04;0.30;;;0.30;;
80261;SDS011;69567;47.574;8.580;2023-11-22T06:25:34;0.13;;;0.13;;
80261;SDS011;69567;47.574;8.580;2023-11-22T06:28:02;0.17;;;0.17;;
80261;SDS011;69567;47.574;8.580;2023-11-22T06:30:30;0.10;;;0.10;;
80261;SDS011;69567;47.574;8.580;2023-11-22T06:32:58;0.43;;;0.10;;
80261;SDS011;69567;47.574;8.580;2023-11-22T06:35:26;0.40;;;0.40;;
80261;SDS011;69567;47.574;8.580;2023-11-22T06:37:54;0.20;;;0.20;;
80261;SDS011;69567;47.574;8.580;2023-11-22T06:40:22;0.30;;;0.20;;
80261;SDS011;69567;47.574;8.580;2023-11-22T06:42:51;0.43;;;0.22;;
80261;SDS011;69567;47.574;8.580;2023-11-22T06:45:19;0.10;;;0.10;;
80261;SDS011;69567;47.574;8.580;2023-11-22T06:47:47;0.32;;;0.20;;
80261;SDS011;69567;47.574;8.580;2023-11-22T06:50:16;0.20;;;0.10;;
80261;SDS011;69567;47.574;8.580;2023-11-22T06:52:44;0.10;;;0.10;;
80261;SDS011;69567;47.574;8.580;2023-11-22T06:55:15;0.40;;;0.30;;
80261;SDS011;69567;47.574;8.580;2023-11-22T06:57:44;0.52;;;0.20;;
80261;SDS011;69567;47.574;8.580;2023-11-22T07:00:15;0.28;;;0.13;;
80261;SDS011;69567;47.574;8.580;2023-11-22T07:02:43;0.30;;;0.30;;
80261;SDS011;69567;47.574;8.580;2023-11-22T07:05:11;0.68;;;0.20;;
80261;SDS011;69567;47.574;8.580;2023-11-22T07:07:40;0.38;;;0.22;;
80261;SDS011;69567;47.574;8.580;2023-11-22T07:10:08;0.08;;;0.08;;
80261;SDS011;69567;47.574;8.580;2023-11-22T07:12:38;0.82;;;0.30;;
80261;SDS011;69567;47.574;8.580;2023-11-22T07:15:06;0.15;;;0.10;;
80261;SDS011;69567;47.574;8.580;2023-11-22T07:17:37;0.10;;;0.10;;
80261;SDS011;69567;47.574;8.580;2023-11-22T07:20:06;0.10;;;0.10;;
80261;SDS011;69567;47.574;8.580;2023-11-22T07:22:37;0.20;;;0.10;;
80261;SDS011;69567;47.574;8.580;2023-11-22T07:25:05;0.68;;;0.25;;
80261;SDS011;69567;47.574;8.580;2023-11-22T07:27:33;0.17;;;0.17;;
80261;SDS011;69567;47.574;8.580;2023-11-22T07:30:01;0.13;;;0.08;;
80261;SDS011;69567;47.574;8.580;2023-11-22T07:32:29;0.13;;;0.10;;
80261;SDS011;69567;47.574;8.580;2023-11-22T07:34:58;0.70;;;0.10;;
80261;SDS011;69567;47.574;8.580;2023-11-22T07:37:29;0.52;;;0.20;;
80261;SDS011;69567;47.574;8.580;2023-11-22T07:39:58;0.30;;;0.30;;
80261;SDS011;69567;47.574;8.580;2023-11-22T07:42:25;0.10;;;0.10;;
80261;SDS011;69567;47.574;8.580;2023-11-22T07:44:54;0.13;;;0.10;;
80261;SDS011;69567;47.574;8.580;2023-11-22T07:47:23;0.35;;;0.30;;
80261;SDS011;69567;47.574;8.580;2023-11-22T07:49:51;0.50;;;0.20;;
80261;SDS011;69567;47.574;8.580;2023-11-22T07:52:20;0.32;;;0.20;;
80261;SDS011;69567;47.574;8.580;2023-11-22T07:54:48;0.10;;;0.10;;
80261;SDS011;69567;47.574;8.580;2023-11-22T07:57:17;0.20;;;0.10;;
80261;SDS011;69567;47.574;8.580;2023-11-22T07:59:47;0.47;;;0.10;;
80261;SDS011;69567;47.574;8.580;2023-11-22T08:02:15;0.20;;;0.20;;
80261;SDS011;69567;47.574;8.580;2023-11-22T08:04:45;0.30;;;0.22;;
80261;SDS011;69567;47.574;8.580;2023-11-22T08:07:14;0.15;;;0.10;;
80261;SDS011;69567;47.574;8.580;2023-11-22T08:09:44;0.20;;;0.20;;
80261;SDS011;69567;47.574;8.580;2023-11-22T08:12:12;0.32;;;0.30;;
80261;SDS011;69567;47.574;8.580;2023-11-22T08:14:40;0.28;;;0.20;;
80261;SDS011;69567;47.574;8.580;2023-11-22T08:17:09;0.30;;;0.20;;
80261;SDS011;69567;47.574;8.580;2023-11-22T08:19:38;0.55;;;0.50;;
80261;SDS011;69567;47.574;8.580;2023-11-22T08:22:06;0.30;;;0.25;;
80261;SDS011;69567;47.574;8.580;2023-11-22T08:24:34;0.20;;;0.20;;
80261;SDS011;69567;47.574;8.580;2023-11-22T08:27:04;0.28;;;0.20;;
80261;SDS011;69567;47.574;8.580;2023-11-22T08:29:33;0.55;;;0.47;;
80261;SDS011;69567;47.574;8.580;2023-11-22T08:32:02;0.20;;;0.20;;
80261;SDS011;69567;47.574;8.580;2023-11-22T08:34:29;0.10;;;0.10;;
80261;SDS011;69567;47.574;8.580;2023-11-22T08:36:57;0.57;;;0.40;;
80261;SDS011;69567;47.574;8.580;2023-11-22T08:39:25;0.40;;;0.35;;
80261;SDS011;69567;47.574;8.580;2023-11-22T08:41:53;0.43;;;0.43;;
80261;SDS011;69567;47.574;8.580;2023-11-22T08:44:22;0.75;;;0.40;;
80261;SDS011;69567;47.574;8.580;2023-11-22T08:46:50;2.55;;;1.40;;
80261;SDS011;69567;47.574;8.580;2023-11-22T08:49:18;2.40;;;1.40;;
80261;SDS011;69567;47.574;8.580;2023-11-22T08:51:46;1.83;;;0.60;;
80261;SDS011;69567;47.574;8.580;2023-11-22T08:54:14;0.32;;;0.30;;
80261;SDS011;69567;47.574;8.580;2023-11-22T08:56:43;0.40;;;0.30;;
80261;SDS011;69567;47.574;8.580;2023-11-22T08:59:13;0.15;;;0.15;;
80261;SDS011;69567;47.574;8.580;2023-11-22T09:01:44;0.20;;;0.20;;
80261;SDS011;69567;47.574;8.580;2023-11-22T09:04:13;0.13;;;0.13;;
80261;SDS011;69567;47.574;8.580;2023-11-22T09:06:42;0.50;;;0.28;;
80261;SDS011;69567;47.574;8.580;2023-11-22T09:09:09;0.63;;;0.40;;
80261;SDS011;69567;47.574;8.580;2023-11-22T09:11:41;0.30;;;0.20;;
80261;SDS011;69567;47.574;8.580;2023-11-22T09:14:09;0.68;;;0.35;;
80261;SDS011;69567;47.574;8.580;2023-11-22T09:16:38;0.30;;;0.30;;
80261;SDS011;69567;47.574;8.580;2023-11-22T09:19:08;0.75;;;0.30;;
80261;SDS011;69567;47.574;8.580;2023-11-22T09:21:36;0.43;;;0.38;;
80261;SDS011;69567;47.574;8.580;2023-11-22T09:24:04;1.08;;;0.60;;
80261;SDS011;69567;47.574;8.580;2023-11-22T09:26:33;0.35;;;0.30;;
80261;SDS011;69567;47.574;8.580;2023-11-22T09:29:01;0.30;;;0.20;;
80261;SDS011;69567;47.574;8.580;2023-11-22T09:31:30;0.63;;;0.52;;
80261;SDS011;69567;47.574;8.580;2023-11-22T09:33:57;0.57;;;0.22;;
80261;SDS011;69567;47.574;8.580;2023-11-22T09:36:28;3.00;;;2.30;;
80261;SDS011;69567;47.574;8.580;2023-11-22T09:38:58;4.63;;;3.17;;
80261;SDS011;69567;47.574;8.580;2023-11-22T09:41:26;4.82;;;4.43;;
80261;SDS011;69567;47.574;8.580;2023-11-22T09:43:55;2.83;;;2.60;;
80261;SDS011;69567;47.574;8.580;2023-11-22T09:46:24;1.27;;;1.10;;
80261;SDS011;69567;47.574;8.580;2023-11-22T09:48:53;0.57;;;0.32;;
80261;SDS011;69567;47.574;8.580;2023-11-22T09:51:23;1.90;;;0.77;;
80261;SDS011;69567;47.574;8.580;2023-11-22T09:53:55;1.10;;;0.90;;
80261;SDS011;69567;47.574;8.580;2023-11-22T09:56:25;1.77;;;1.38;;
80261;SDS011;69567;47.574;8.580;2023-11-22T09:58:53;2.92;;;1.55;;
80261;SDS011;69567;47.574;8.580;2023-11-22T10:01:23;2.67;;;1.40;;
80261;SDS011;69567;47.574;8.580;2023-11-22T10:03:51;7.10;;;2.92;;
80261;SDS011;69567;47.574;8.580;2023-11-22T10:06:19;1.77;;;1.08;;
80261;SDS011;69567;47.574;8.580;2023-11-22T10:08:47;0.52;;;0.40;;
80261;SDS011;69567;47.574;8.580;2023-11-22T10:11:16;0.57;;;0.55;;
80261;SDS011;69567;47.574;8.580;2023-11-22T10:13:46;0.60;;;0.40;;
80261;SDS011;69567;47.574;8.580;2023-11-22T10:16:15;0.20;;;0.20;;
80261;SDS011;69567;47.574;8.580;2023-11-22T10:18:45;0.55;;;0.17;;
80261;SDS011;69567;47.574;8.580;2023-11-22T10:21:20;0.30;;;0.30;;
80261;SDS011;69567;47.574;8.580;2023-11-22T10:23:48;0.60;;;0.40;;
80261;SDS011;69567;47.574;8.580;2023-11-22T10:26:19;1.38;;;0.40;;
80261;SDS011;69567;47.574;8.580;2023-11-22T10:28:50;0.30;;;0.30;;
80261;SDS011;69567;47.574;8.580;2023-11-22T10:31:18;0.40;;;0.30;;
80261;SDS011;69567;47.574;8.580;2023-11-22T10:33:46;0.70;;;0.30;;
80261;SDS011;69567;47.574;8.580;2023-11-22T10:36:14;0.40;;;0.30;;
80261;SDS011;69567;47.574;8.580;2023-11-22T10:38:45;0.40;;;0.30;;
80261;SDS011;69567;47.574;8.580;2023-11-22T10:41:14;0.80;;;0.40;;
80261;SDS011;69567;47.574;8.580;2023-11-22T10:43:44;0.50;;;0.38;;
80261;SDS011;69567;47.574;8.580;2023-11-22T10:46:12;0.45;;;0.40;;
80261;SDS011;69567;47.574;8.580;2023-11-22T10:48:41;0.40;;;0.40;;
80261;SDS011;69567;47.574;8.580;2023-11-22T10:51:10;0.30;;;0.30;;
80261;SDS011;69567;47.574;8.580;2023-11-22T10:53:42;0.38;;;0.38;;
80261;SDS011;69567;47.574;8.580;2023-11-22T10:56:14;0.60;;;0.30;;
80261;SDS011;69567;47.574;8.580;2023-11-22T10:58:48;0.43;;;0.25;;
80261;SDS011;69567;47.574;8.580;2023-11-22T11:01:16;0.40;;;0.40;;
80261;SDS011;69567;47.574;8.580;2023-11-22T11:03:50;0.55;;;0.55;;
80261;SDS011;69567;47.574;8.580;2023-11-22T11:06:23;1.20;;;0.57;;
80261;SDS011;69567;47.574;8.580;2023-11-22T11:08:54;0.88;;;0.40;;
80261;SDS011;69567;47.574;8.580;2023-11-22T11:11:22;1.52;;;0.55;;
80261;SDS011;69567;47.574;8.580;2023-11-22T11:13:52;1.08;;;0.90;;
80261;SDS011;69567;47.574;8.580;2023-11-22T11:16:21;1.58;;;0.45;;
80261;SDS011;69567;47.574;8.580;2023-11-22T11:18:49;0.40;;;0.40;;
80261;SDS011;69567;47.574;8.580;2023-11-22T11:21:18;0.52;;;0.30;;
80261;SDS011;69567;47.574;8.580;2023-11-22T11:23:46;0.50;;;0.50;;
80261;SDS011;69567;47.574;8.580;2023-11-22T11:26:14;0.40;;;0.40;;
80261;SDS011;69567;47.574;8.580;2023-11-22T11:28:44;0.30;;;0.25;;
80261;SDS011;69567;47.574;8.580;2023-11-22T11:31:13;0.60;;;0.32;;
80261;SDS011;69567;47.574;8.580;2023-11-22T11:33:52;0.60;;;0.50;;
80261;SDS011;69567;47.574;8.580;2023-11-22T11:36:22;0.43;;;0.38;;
80261;SDS011;69567;47.574;8.580;2023-11-22T11:38:51;0.70;;;0.30;;
80261;SDS011;69567;47.574;8.580;2023-11-22T11:41:23;0.60;;;0.43;;
80261;SDS011;69567;47.574;8.580;2023-11-22T11:43:51;0.50;;;0.45;;
80261;SDS011;69567;47.574;8.580;2023-11-22T11:46:20;0.60;;;0.47;;
80261;SDS011;69567;47.574;8.580;2023-11-22T11:48:50;0.30;;;0.30;;
80261;SDS011;69567;47.574;8.580;2023-11-22T11:51:19;0.77;;;0.30;;
80261;SDS011;69567;47.574;8.580;2023-11-22T11:53:47;0.70;;;0.30;;
80261;SDS011;69567;47.574;8.580;2023-11-22T11:56:16;0.73;;;0.40;;
80261;SDS011;69567;47.574;8.580;2023-11-22T11:58:44;0.20;;;0.10;;
80261;SDS011;69567;47.574;8.580;2023-11-22T12:01:13;0.10;;;0.10;;
80261;SDS011;69567;47.574;8.580;2023-11-22T12:03:43;0.30;;;0.28;;
80261;SDS011;69567;47.574;8.580;2023-11-22T12:06:14;0.22;;;0.20;;
80261;SDS011;69567;47.574;8.580;2023-11-22T12:08:44;0.73;;;0.47;;
80261;SDS011;69567;47.574;8.580;2023-11-22T12:11:15;0.40;;;0.40;;
80261;SDS011;69567;47.574;8.580;2023-11-22T12:13:45;0.52;;;0.32;;
80261;SDS011;69567;47.574;8.580;2023-11-22T12:16:16;0.43;;;0.40;;
80261;SDS011;69567;47.574;8.580;2023-11-22T12:18:47;0.85;;;0.32;;
80261;SDS011;69567;47.574;8.580;2023-11-22T12:21:15;0.32;;;0.30;;
80261;SDS011;69567;47.574;8.580;2023-11-22T12:23:44;0.50;;;0.40;;
80261;SDS011;69567;47.574;8.580;2023-11-22T12:26:15;1.52;;;0.40;;
80261;SDS011;69567;47.574;8.580;2023-11-22T12:28:45;0.80;;;0.63;;
80261;SDS011;69567;47.574;8.580;2023-11-22T12:31:26;0.88;;;0.50;;
80261;SDS011;69567;47.574;8.580;2023-11-22T12:33:57;0.52;;;0.40;;
80261;SDS011;69567;47.574;8.580;2023-11-22T12:36:26;0.50;;;0.50;;
80261;SDS011;69567;47.574;8.580;2023-11-22T12:38:54;1.70;;;0.63;;
80261;SDS011;69567;47.574;8.580;2023-11-22T12:41:23;0.60;;;0.60;;
80261;SDS011;69567;47.574;8.580;2023-11-22T12:44:01;0.50;;;0.50;;
80261;SDS011;69567;47.574;8.580;2023-11-22T12:46:34;1.13;;;0.32;;
80261;SDS011;69567;47.574;8.580;2023-11-22T12:49:13;1.05;;;0.45;;
80261;SDS011;69567;47.574;8.580;2023-11-22T12:51:45;1.08;;;0.30;;
80261;SDS011;69567;47.574;8.580;2023-11-22T12:54:13;0.50;;;0.40;;
80261;SDS011;69567;47.574;8.580;2023-11-22T12:56:41;1.75;;;0.70;;
80261;SDS011;69567;47.574;8.580;2023-11-22T12:59:10;1.08;;;0.40;;
80261;SDS011;69567;47.574;8.580;2023-11-22T13:01:38;0.88;;;0.52;;
80261;SDS011;69567;47.574;8.580;2023-11-22T13:04:06;0.98;;;0.63;;
80261;SDS011;69567;47.574;8.580;2023-11-22T13:06:36;1.13;;;0.63;;
80261;SDS011;69567;47.574;8.580;2023-11-22T13:09:05;1.33;;;0.70;;
80261;SDS011;69567;47.574;8.580;2023-11-22T13:11:34;0.73;;;0.73;;
80261;SDS011;69567;47.574;8.580;2023-11-22T13:14:02;0.45;;;0.40;;
80261;SDS011;69567;47.574;8.580;2023-11-22T13:16:30;0.65;;;0.50;;
80261;SDS011;69567;47.574;8.580;2023-11-22T13:18:58;1.85;;;0.60;;
80261;SDS011;69567;47.574;8.580;2023-11-22T13:21:26;1.33;;;0.47;;
80261;SDS011;69567;47.574;8.580;2023-11-22T13:23:56;0.32;;;0.28;;
80261;SDS011;69567;47.574;8.580;2023-11-22T13:26:25;0.20;;;0.20;;
80261;SDS011;69567;47.574;8.580;2023-11-22T13:28:53;0.40;;;0.40;;
80261;SDS011;69567;47.574;8.580;2023-11-22T13:31:22;0.75;;;0.38;;
80261;SDS011;69567;47.574;8.580;2023-11-22T13:33:50;0.65;;;0.47;;
80261;SDS011;69567;47.574;8.580;2023-11-22T13:36:18;0.25;;;0.20;;
80261;SDS011;69567;47.574;8.580;2023-11-22T13:38:46;0.52;;;0.30;;
80261;SDS011;69567;47.574;8.580;2023-11-22T13:41:15;0.38;;;0.28;;
80261;SDS011;69567;47.574;8.580;2023-11-22T13:43:43;0.65;;;0.35;;
80261;SDS011;69567;47.574;8.580;2023-11-22T13:46:13;0.43;;;0.30;;
80261;SDS011;69567;47.574;8.580;2023-11-22T13:48:42;0.20;;;0.20;;
80261;SDS011;69567;47.574;8.580;2023-11-22T13:51:09;1.77;;;0.40;;
80261;SDS011;69567;47.574;8.580;2023-11-22T13:53:38;0.68;;;0.38;;
80261;SDS011;69567;47.574;8.580;2023-11-22T13:56:10;0.30;;;0.28;;
80261;SDS011;69567;47.574;8.580;2023-11-22T13:58:43;0.50;;;0.50;;
80261;SDS011;69567;47.574;8.580;2023-11-22T14:01:11;0.35;;;0.35;;
80261;SDS011;69567;47.574;8.580;2023-11-22T14:03:43;1.17;;;0.60;;
80261;SDS011;69567;47.574;8.580;2023-11-22T14:06:11;0.50;;;0.40;;
80261;SDS011;69567;47.574;8.580;2023-11-22T14:08:43;2.20;;;0.47;;
80261;SDS011;69567;47.574;8.580;2023-11-22T14:11:11;0.88;;;0.55;;
80261;SDS011;69567;47.574;8.580;2023-11-22T14:13:40;1.48;;;0.57;;
80261;SDS011;69567;47.574;8.580;2023-11-22T14:16:09;2.90;;;1.00;;
80261;SDS011;69567;47.574;8.580;2023-11-22T14:18:37;2.50;;;1.15;;
80261;SDS011;69567;47.574;8.580;2023-11-22T14:21:05;1.70;;;0.65;;
80261;SDS011;69567;47.574;8.580;2023-11-22T14:23:33;1.10;;;0.55;;
80261;SDS011;69567;47.574;8.580;2023-11-22T14:26:01;0.70;;;0.40;;
80261;SDS011;69567;47.574;8.580;2023-11-22T14:28:29;0.52;;;0.20;;
80261;SDS011;69567;47.574;8.580;2023-11-22T14:30:57;0.40;;;0.20;;
80261;SDS011;69567;47.574;8.580;2023-11-22T14:33:26;0.65;;;0.40;;
80261;SDS011;69567;47.574;8.580;2023-11-22T14:35:58;0.70;;;0.57;;
80261;SDS011;69567;47.574;8.580;2023-11-22T14:38:26;0.45;;;0.30;;
80261;SDS011;69567;47.574;8.580;2023-11-22T14:40:54;1.35;;;0.30;;
80261;SDS011;69567;47.574;8.580;2023-11-22T14:43:23;0.28;;;0.20;;
80261;SDS011;69567;47.574;8.580;2023-11-22T14:45:50;0.38;;;0.30;;
80261;SDS011;69567;47.574;8.580;2023-11-22T14:48:19;0.05;;;0.05;;
80261;SDS011;69567;47.574;8.580;2023-11-22T14:50:48;0.10;;;0.10;;
80261;SDS011;69567;47.574;8.580;2023-11-22T14:53:16;0.85;;;0.40;;
80261;SDS011;69567;47.574;8.580;2023-11-22T14:55:44;0.60;;;0.47;;
80261;SDS011;69567;47.574;8.580;2023-11-22T14:58:12;1.45;;;0.90;;